createdAt,value
2023-02-15T00:00:11.784Z,64.10
2023-02-15T00:02:59.121Z,64.54
2023-02-15T00:05:26.220Z,64.31
2023-02-15T00:07:53.460Z,64.18
2023-02-15T00:10:20.461Z,64.24
2023-02-15T00:12:47.670Z,64.26
2023-02-15T00:15:14.758Z,65.20
2023-02-15T00:17:42.047Z,64.43
2023-02-15T00:20:09.811Z,64.45
2023-02-15T00:22:37.184Z,63.88
2023-02-15T00:25:04.935Z,64.25
2023-02-15T00:27:32.324Z,64.77
2023-02-15T00:29:59.487Z,64.56
2023-02-15T00:32:28.445Z,64.75
2023-02-15T00:34:55.415Z,64.97
2023-02-15T00:37:22.842Z,65.16
2023-02-15T00:39:49.889Z,64.75
2023-02-15T00:42:17.175Z,64.20
2023-02-15T00:44:44.095Z,64.15
2023-02-15T00:47:11.373Z,64.53
2023-02-15T00:49:38.456Z,63.98
2023-02-15T00:52:05.691Z,64.29
2023-02-15T00:54:32.716Z,64.38
2023-02-15T00:56:59.959Z,64.52
2023-02-15T00:59:26.808Z,64.56
2023-02-15T01:01:54.029Z,64.51
2023-02-15T01:04:20.953Z,64.58
2023-02-15T01:06:48.198Z,64.78
2023-02-15T01:09:15.195Z,65.09
2023-02-15T01:11:42.392Z,65.06
2023-02-15T01:14:09.381Z,65.21
2023-02-15T01:16:36.557Z,65.40
2023-02-15T01:19:03.814Z,65.89
2023-02-15T01:21:31.190Z,65.13
2023-02-15T01:23:58.122Z,65.22
2023-02-15T01:26:25.324Z,66.05
2023-02-15T01:28:52.249Z,65.85
2023-02-15T01:31:22.045Z,65.42
2023-02-15T01:33:49.496Z,65.53
2023-02-15T01:36:18.404Z,65.45
2023-02-15T01:38:45.974Z,66.15
2023-02-15T01:41:27.325Z,66.10
2023-02-15T01:44:01.940Z,65.86
2023-02-15T01:46:41.604Z,66.17
2023-02-15T01:49:24.832Z,65.50
2023-02-15T01:51:53.907Z,66.31
2023-02-15T01:54:34.992Z,65.82
2023-02-15T01:57:09.795Z,65.58
2023-02-15T01:59:40.649Z,65.45
2023-02-15T02:02:12.975Z,65.48
2023-02-15T02:04:50.584Z,65.43
2023-02-15T02:07:23.556Z,66.24
2023-02-15T02:09:51.422Z,66.78
2023-02-15T02:12:22.845Z,66.64
2023-02-15T02:14:52.254Z,66.42
2023-02-15T02:18:19.170Z,67.03
2023-02-15T02:21:08.411Z,66.83
2023-02-15T02:23:40.547Z,65.91
2023-02-15T02:26:58.094Z,65.97
2023-02-15T02:29:55.977Z,65.94
2023-02-15T02:32:50.877Z,66.32
2023-02-15T02:35:54.252Z,66.27
2023-02-15T02:38:49.561Z,66.41
2023-02-15T02:41:42.696Z,66.24
2023-02-15T02:44:25.882Z,66.05
2023-02-15T02:47:27.804Z,66.30
2023-02-15T02:50:10.204Z,66.47
2023-02-15T02:52:41.992Z,66.11
2023-02-15T02:55:20.826Z,66.10
2023-02-15T02:58:03.189Z,65.51
2023-02-15T03:00:46.356Z,65.82
2023-02-15T03:03:30.001Z,66.00
2023-02-15T03:06:04.793Z,66.03
2023-02-15T03:08:39.104Z,66.03
2023-02-15T03:11:06.446Z,66.23
2023-02-15T03:13:35.043Z,66.29
2023-02-15T03:16:24.610Z,66.51
2023-02-15T03:18:58.975Z,67.05
2023-02-15T03:21:39.531Z,67.38
2023-02-15T03:24:23.385Z,67.70
2023-02-15T03:26:54.093Z,67.65
2023-02-15T03:29:28.554Z,66.93
2023-02-15T03:32:31.179Z,66.97
2023-02-15T03:35:12.434Z,67.01
2023-02-15T03:38:10.823Z,66.85
2023-02-15T03:41:12.851Z,66.42
2023-02-15T03:44:48.121Z,67.32
2023-02-15T03:48:10.961Z,67.15
2023-02-15T03:51:01.955Z,67.49
2023-02-15T03:53:29.447Z,67.89
2023-02-15T03:55:56.945Z,67.34
2023-02-15T03:58:42.804Z,67.17
2023-02-15T04:01:47.879Z,66.71
2023-02-15T04:04:25.489Z,67.61
2023-02-15T04:06:52.712Z,67.63
2023-02-15T04:09:38.394Z,67.58
2023-02-15T04:12:05.628Z,67.76
2023-02-15T04:14:51.698Z,67.97
2023-02-15T04:17:18.734Z,67.36
2023-02-15T04:20:04.407Z,67.76
2023-02-15T04:22:49.803Z,66.78
2023-02-15T04:25:17.304Z,66.65
2023-02-15T04:27:54.046Z,67.21
2023-02-15T04:30:26.087Z,67.40
2023-02-15T04:32:57.536Z,67.86
2023-02-15T04:35:24.957Z,68.07
2023-02-15T04:37:52.116Z,68.32
2023-02-15T04:40:19.880Z,68.04
2023-02-15T04:42:50.253Z,68.03
2023-02-15T04:45:18.612Z,67.39
2023-02-15T04:47:45.781Z,67.17
2023-02-15T04:50:13.278Z,67.12
2023-02-15T04:52:40.373Z,66.99
2023-02-15T04:55:08.472Z,67.42
2023-02-15T04:57:35.606Z,67.98
2023-02-15T05:00:03.159Z,67.40
2023-02-15T05:02:33.769Z,67.17
2023-02-15T05:05:14.085Z,67.14
2023-02-15T05:07:41.075Z,67.19
2023-02-15T05:10:09.329Z,66.28
2023-02-15T05:12:36.855Z,66.64
2023-02-15T05:15:04.757Z,66.79
2023-02-15T05:17:31.619Z,66.92
2023-02-15T05:19:58.790Z,67.33
2023-02-15T05:22:26.170Z,67.52
2023-02-15T05:25:12.026Z,67.67
2023-02-15T05:27:57.679Z,67.89
2023-02-15T05:30:25.048Z,67.77
2023-02-15T05:32:52.236Z,68.04
2023-02-15T05:35:19.853Z,68.18
2023-02-15T05:37:46.933Z,68.57
2023-02-15T05:40:14.261Z,68.69
2023-02-15T05:42:41.322Z,67.47
2023-02-15T05:45:08.756Z,67.86
2023-02-15T05:47:35.681Z,67.86
2023-02-15T05:50:02.956Z,67.91
2023-02-15T05:52:29.952Z,68.29
2023-02-15T05:54:57.259Z,68.14
2023-02-15T05:57:24.206Z,68.06
2023-02-15T05:59:51.774Z,68.38
2023-02-15T06:02:19.169Z,68.69
2023-02-15T06:04:46.494Z,68.67
2023-02-15T06:07:13.625Z,68.56
2023-02-15T06:09:40.877Z,67.69
2023-02-15T06:12:08.007Z,68.08
2023-02-15T06:14:35.236Z,68.23
2023-02-15T06:17:02.374Z,68.37
2023-02-15T06:19:29.590Z,68.23
2023-02-15T06:21:56.640Z,68.52
2023-02-15T06:24:24.093Z,68.55
2023-02-15T06:26:51.089Z,68.37
2023-02-15T06:29:18.305Z,68.38
2023-02-15T06:31:55.470Z,68.84
2023-02-15T06:34:22.848Z,68.89
2023-02-15T06:36:50.179Z,68.72
2023-02-15T06:39:17.770Z,68.36
2023-02-15T06:41:44.694Z,68.25
2023-02-15T06:44:11.953Z,68.56
2023-02-15T06:46:38.869Z,68.20
2023-02-15T06:49:06.393Z,67.93
2023-02-15T06:51:35.205Z,68.37
2023-02-15T06:54:02.491Z,69.03
2023-02-15T06:56:29.440Z,68.78
2023-02-15T06:58:56.849Z,68.15
2023-02-15T07:01:24.136Z,68.24
2023-02-15T07:03:51.589Z,67.98
2023-02-15T07:06:18.729Z,68.65
2023-02-15T07:08:46.043Z,68.60
2023-02-15T07:11:32.140Z,68.83
2023-02-15T07:13:59.550Z,70.14
2023-02-15T07:16:27.096Z,70.02
2023-02-15T07:18:54.611Z,69.91
2023-02-15T07:21:21.870Z,69.75
2023-02-15T07:23:50.017Z,69.95
2023-02-15T07:26:17.028Z,70.08
2023-02-15T07:28:44.721Z,70.18
2023-02-15T07:31:11.781Z,70.87
2023-02-15T07:33:39.006Z,69.63
2023-02-15T07:36:07.019Z,69.47
2023-02-15T07:38:39.345Z,69.26
2023-02-15T07:41:15.647Z,69.71
2023-02-15T07:43:46.069Z,69.61
2023-02-15T07:46:17.769Z,69.72
2023-02-15T07:48:45.827Z,69.38
2023-02-15T07:51:15.490Z,69.08
2023-02-15T07:53:43.660Z,68.84
2023-02-15T07:56:13.676Z,69.31
2023-02-15T07:58:52.958Z,69.78
2023-02-15T08:01:32.245Z,69.64
2023-02-15T08:04:00.210Z,70.36
2023-02-15T08:06:30.731Z,69.32
2023-02-15T08:08:58.268Z,69.74
2023-02-15T08:11:38.803Z,68.77
2023-02-15T08:14:13.906Z,68.98
2023-02-15T08:16:43.403Z,69.53
2023-02-15T08:19:28.688Z,69.25
2023-02-15T08:22:03.049Z,69.65
2023-02-15T08:24:33.877Z,69.24
2023-02-15T08:27:06.060Z,69.56
2023-02-15T08:29:35.756Z,68.84
2023-02-15T08:32:07.432Z,68.15
2023-02-15T08:34:40.590Z,68.22
2023-02-15T08:37:08.241Z,68.12
2023-02-15T08:39:35.958Z,68.73
2023-02-15T08:42:03.175Z,68.98
2023-02-15T08:44:30.841Z,69.06
2023-02-15T08:47:03.763Z,68.88
2023-02-15T08:49:31.310Z,68.61
2023-02-15T08:51:58.643Z,68.56
2023-02-15T08:54:26.111Z,68.93
2023-02-15T08:56:53.155Z,68.60
2023-02-15T08:59:24.249Z,68.83
2023-02-15T09:01:53.303Z,69.46
2023-02-15T09:04:23.639Z,68.71
2023-02-15T09:06:51.734Z,70.15
2023-02-15T09:09:20.447Z,69.85
2023-02-15T09:11:55.836Z,70.07
2023-02-15T09:14:28.031Z,69.98
2023-02-15T09:16:56.275Z,69.39
2023-02-15T09:19:25.503Z,68.66
2023-02-15T09:21:52.722Z,68.28
2023-02-15T09:24:20.319Z,68.31
2023-02-15T09:26:49.685Z,67.95
2023-02-15T09:29:18.862Z,67.39
2023-02-15T09:31:52.004Z,66.94
2023-02-15T09:34:22.542Z,67.65
2023-02-15T09:36:51.330Z,67.34
2023-02-15T09:39:25.829Z,67.50
2023-02-15T09:42:17.310Z,67.38
2023-02-15T09:45:22.827Z,67.12
2023-02-15T09:48:28.673Z,67.16
2023-02-15T09:51:22.777Z,66.08
2023-02-15T09:54:13.416Z,66.29
2023-02-15T09:56:49.757Z,65.78
2023-02-15T09:59:55.178Z,65.48
2023-02-15T10:02:53.866Z,65.94
2023-02-15T10:06:05.742Z,65.64
2023-02-15T10:09:03.862Z,65.61
2023-02-15T10:11:56.122Z,65.95
2023-02-15T10:15:01.887Z,66.04
2023-02-15T10:17:55.339Z,65.93
2023-02-15T10:21:23.220Z,65.95
2023-02-15T10:24:21.769Z,66.15
2023-02-15T10:26:50.257Z,65.80
2023-02-15T10:29:38.944Z,65.79
2023-02-15T10:32:25.934Z,65.45
2023-02-15T10:35:04.229Z,65.57
2023-02-15T10:37:48.901Z,65.91
2023-02-15T10:40:57.559Z,65.50
2023-02-15T10:44:07.026Z,65.51
2023-02-15T10:47:12.613Z,65.79
2023-02-15T10:50:31.481Z,65.35
2023-02-15T10:53:32.173Z,65.53
2023-02-15T10:56:19.697Z,65.76
2023-02-15T10:59:25.246Z,66.74
2023-02-15T11:03:22.013Z,67.01
2023-02-15T11:06:11.367Z,66.21
2023-02-15T11:08:47.826Z,66.16
2023-02-15T11:11:30.694Z,66.06
2023-02-15T11:14:05.038Z,65.41
2023-02-15T11:16:42.780Z,65.43
2023-02-15T11:19:35.578Z,66.47
2023-02-15T11:22:07.757Z,66.61
2023-02-15T11:24:44.511Z,66.91
2023-02-15T11:27:22.135Z,66.01
2023-02-15T11:29:59.252Z,66.00
2023-02-15T11:32:41.240Z,65.13
2023-02-15T11:35:11.203Z,65.58
2023-02-15T11:37:47.617Z,66.10
2023-02-15T11:40:52.963Z,64.98
2023-02-15T11:43:54.321Z,64.78
2023-02-15T11:46:22.736Z,64.87
2023-02-15T11:48:50.275Z,64.74
2023-02-15T11:51:23.850Z,64.19
2023-02-15T11:53:53.243Z,64.56
2023-02-15T11:56:25.608Z,66.01
2023-02-15T11:59:04.766Z,65.47
2023-02-15T12:01:43.493Z,65.42
2023-02-15T12:04:35.780Z,64.89
2023-02-15T12:07:26.657Z,64.96
2023-02-15T12:10:18.184Z,65.54
2023-02-15T12:12:45.628Z,65.06
2023-02-15T12:15:15.136Z,65.44
2023-02-15T12:17:56.138Z,65.08
2023-02-15T12:20:33.545Z,64.94
2023-02-15T12:23:12.831Z,64.94
2023-02-15T12:26:00.360Z,64.75
2023-02-15T12:28:45.542Z,64.88
2023-02-15T12:31:28.840Z,64.88
2023-02-15T12:34:01.071Z,63.95
2023-02-15T12:36:48.023Z,63.96
2023-02-15T12:39:20.625Z,63.93
2023-02-15T12:42:01.644Z,64.21
2023-02-15T12:44:38.223Z,63.97
2023-02-15T12:47:17.054Z,64.97
2023-02-15T12:49:48.066Z,64.91
2023-02-15T12:52:21.418Z,64.72
2023-02-15T12:54:49.633Z,64.50
2023-02-15T12:57:33.811Z,64.49
2023-02-15T13:00:32.686Z,65.06
2023-02-15T13:03:01.572Z,64.34
2023-02-15T13:05:47.538Z,64.22
2023-02-15T13:08:32.164Z,63.55
2023-02-15T13:11:12.132Z,63.26
2023-02-15T13:13:59.952Z,63.92
2023-02-15T13:16:41.132Z,64.27
2023-02-15T13:19:43.448Z,63.64
2023-02-15T13:22:44.620Z,63.33
2023-02-15T13:25:21.057Z,63.02
2023-02-15T13:27:56.876Z,62.62
2023-02-15T13:30:33.322Z,62.78
2023-02-15T13:33:10.708Z,62.58
2023-02-15T13:36:27.024Z,62.93
2023-02-15T13:39:32.709Z,62.85
2023-02-15T13:42:24.296Z,62.62
2023-02-15T13:45:31.799Z,62.91
2023-02-15T13:48:55.946Z,63.07
2023-02-15T13:51:28.141Z,63.65
2023-02-15T13:54:27.495Z,63.57
2023-02-15T13:57:19.514Z,63.59
2023-02-15T14:00:12.627Z,63.44
2023-02-15T14:02:40.148Z,62.61
2023-02-15T14:05:39.669Z,62.77
2023-02-15T14:08:38.850Z,63.05
2023-02-15T14:11:26.279Z,63.24
2023-02-15T14:14:06.750Z,63.40
2023-02-15T14:17:21.797Z,63.49
2023-02-15T14:19:58.554Z,62.84
2023-02-15T14:23:08.826Z,63.34
2023-02-15T14:25:59.101Z,62.19
2023-02-15T14:28:38.616Z,62.38
2023-02-15T14:31:12.543Z,61.85
2023-02-15T14:33:48.468Z,61.73
2023-02-15T14:36:20.736Z,62.59
2023-02-15T14:38:53.612Z,62.91
2023-02-15T14:41:44.945Z,63.50
2023-02-15T14:44:21.308Z,62.94
2023-02-15T14:47:11.586Z,64.33
2023-02-15T14:49:41.134Z,64.10
2023-02-15T14:52:12.720Z,63.33
2023-02-15T14:54:39.689Z,63.71
2023-02-15T14:57:09.327Z,62.97
2023-02-15T14:59:59.407Z,63.16
2023-02-15T15:03:02.625Z,62.68
2023-02-15T15:05:50.115Z,63.12
2023-02-15T15:08:42.261Z,62.57
2023-02-15T15:11:42.872Z,62.31
2023-02-15T15:14:35.114Z,62.87
2023-02-15T15:17:05.528Z,62.58
2023-02-15T15:19:51.786Z,62.53
2023-02-15T15:22:29.933Z,62.68
2023-02-15T15:25:46.788Z,62.70
2023-02-15T15:28:35.617Z,62.47
2023-02-15T15:31:28.214Z,62.66
2023-02-15T15:34:33.582Z,62.92
2023-02-15T15:37:49.678Z,62.77
2023-02-15T15:40:40.594Z,62.50
2023-02-15T15:43:39.511Z,62.98
2023-02-15T15:46:48.566Z,62.80
2023-02-15T15:49:25.747Z,63.46
2023-02-15T15:51:54.648Z,62.98
2023-02-15T15:54:27.153Z,63.00
2023-02-15T15:57:03.265Z,63.35
2023-02-15T15:59:35.727Z,63.25
2023-02-15T16:02:17.025Z,62.96
2023-02-15T16:04:47.217Z,63.22
2023-02-15T16:07:27.567Z,63.38
2023-02-15T16:10:28.061Z,63.79
2023-02-15T16:12:56.691Z,63.56
2023-02-15T16:15:37.250Z,63.51
2023-02-15T16:18:06.158Z,63.33
2023-02-15T16:20:37.983Z,63.27
2023-02-15T16:23:35.987Z,63.96
2023-02-15T16:26:22.067Z,64.26
2023-02-15T16:28:54.133Z,64.81
2023-02-15T16:31:23.537Z,64.47
2023-02-15T16:33:56.433Z,64.96
2023-02-15T16:36:29.839Z,65.49
2023-02-15T16:38:56.858Z,65.66
2023-02-15T16:41:30.600Z,65.23
2023-02-15T16:44:05.607Z,65.60
2023-02-15T16:46:41.405Z,65.72
2023-02-15T16:49:29.334Z,65.96
2023-02-15T16:52:07.046Z,65.99
2023-02-15T16:54:36.769Z,65.89
2023-02-15T16:57:04.389Z,65.97
2023-02-15T16:59:48.240Z,66.16
2023-02-15T17:02:43.464Z,66.51
2023-02-15T17:05:13.180Z,66.25
2023-02-15T17:08:16.494Z,66.13
2023-02-15T17:11:07.648Z,66.54
2023-02-15T17:14:09.748Z,66.03
2023-02-15T17:16:50.029Z,66.42
2023-02-15T17:19:22.981Z,66.56
2023-02-15T17:21:58.136Z,66.35
2023-02-15T17:24:46.254Z,66.63
2023-02-15T17:27:23.677Z,66.54
2023-02-15T17:30:13.686Z,66.84
2023-02-15T17:32:56.754Z,67.18
2023-02-15T17:35:28.950Z,66.43
2023-02-15T17:38:19.197Z,66.67
2023-02-15T17:40:46.916Z,66.61
2023-02-15T17:43:14.224Z,66.74
2023-02-15T17:45:50.932Z,67.11
2023-02-15T17:48:35.582Z,66.99
2023-02-15T17:51:07.575Z,66.44
2023-02-15T17:53:35.231Z,66.63
2023-02-15T17:56:10.537Z,66.92
2023-02-15T17:58:38.461Z,66.96
2023-02-15T18:01:34.362Z,67.19
2023-02-15T18:04:20.465Z,67.46
2023-02-15T18:07:07.124Z,66.46
2023-02-15T18:09:52.934Z,67.00
2023-02-15T18:12:27.992Z,67.57
2023-02-15T18:14:57.230Z,67.34
2023-02-15T18:17:34.059Z,67.49
2023-02-15T18:20:08.242Z,67.32
2023-02-15T18:22:36.757Z,67.37
2023-02-15T18:25:07.543Z,67.31
2023-02-15T18:27:36.859Z,67.33
2023-02-15T18:30:04.563Z,67.54
2023-02-15T18:32:36.799Z,66.98
2023-02-15T18:35:05.397Z,67.09
2023-02-15T18:37:34.758Z,66.58
2023-02-15T18:40:04.353Z,67.16
2023-02-15T18:42:35.518Z,66.79
2023-02-15T18:45:22.171Z,67.14
2023-02-15T18:47:50.176Z,67.18
2023-02-15T18:50:24.131Z,67.20
2023-02-15T18:52:52.562Z,68.14
2023-02-15T18:55:24.224Z,67.70
2023-02-15T18:57:55.599Z,67.67
2023-02-15T19:00:30.175Z,67.56
2023-02-15T19:02:59.113Z,66.96
2023-02-15T19:05:29.635Z,67.51
2023-02-15T19:07:59.730Z,67.17
2023-02-15T19:10:30.584Z,66.82
2023-02-15T19:13:00.357Z,67.28
2023-02-15T19:15:30.930Z,67.69
2023-02-15T19:17:58.936Z,67.22
2023-02-15T19:20:33.566Z,67.07
2023-02-15T19:23:02.290Z,67.28
2023-02-15T19:25:34.414Z,67.42
2023-02-15T19:28:12.530Z,66.91
2023-02-15T19:30:39.748Z,67.33
2023-02-15T19:33:14.133Z,67.59
2023-02-15T19:35:41.684Z,67.73
2023-02-15T19:38:19.384Z,67.53
2023-02-15T19:40:47.116Z,67.71
2023-02-15T19:43:28.809Z,67.13
2023-02-15T19:45:56.646Z,66.86
2023-02-15T19:48:24.930Z,67.44
2023-02-15T19:50:53.532Z,67.37
2023-02-15T19:53:28.504Z,67.68
2023-02-15T19:55:55.788Z,68.40
2023-02-15T19:58:23.834Z,68.34
2023-02-15T20:00:52.489Z,67.80
2023-02-15T20:03:20.736Z,67.90
2023-02-15T20:05:48.178Z,67.42
2023-02-15T20:08:23.018Z,68.10
2023-02-15T20:10:50.466Z,68.27
2023-02-15T20:13:20.726Z,67.79
2023-02-15T20:15:49.664Z,67.98
2023-02-15T20:18:19.762Z,67.80
2023-02-15T20:20:54.818Z,68.01
2023-02-15T20:23:35.393Z,67.64
2023-02-15T20:26:18.642Z,68.17
2023-02-15T20:28:47.110Z,68.53
2023-02-15T20:31:20.627Z,68.50
2023-02-15T20:33:49.715Z,68.39
2023-02-15T20:36:22.534Z,68.84
2023-02-15T20:38:50.695Z,68.52
2023-02-15T20:41:37.293Z,68.71
2023-02-15T20:44:22.393Z,68.92
2023-02-15T20:46:53.851Z,69.25
2023-02-15T20:49:24.369Z,68.59
2023-02-15T20:51:53.692Z,68.98
2023-02-15T20:54:29.604Z,69.30
2023-02-15T20:56:57.333Z,69.05
2023-02-15T20:59:32.161Z,69.24
2023-02-15T21:02:19.156Z,68.98
2023-02-15T21:04:47.385Z,69.41
2023-02-15T21:07:21.234Z,68.83
2023-02-15T21:09:49.716Z,68.59
2023-02-15T21:12:19.884Z,68.99
2023-02-15T21:14:47.481Z,68.76
2023-02-15T21:17:16.677Z,68.76
2023-02-15T21:19:44.773Z,68.89
2023-02-15T21:22:16.717Z,68.56
2023-02-15T21:24:55.103Z,68.91
2023-02-15T21:27:22.379Z,68.02
2023-02-15T21:29:50.151Z,68.58
2023-02-15T21:32:18.863Z,68.74
2023-02-15T21:34:47.313Z,68.42
2023-02-15T21:37:32.758Z,67.89
2023-02-15T21:40:00.438Z,68.12
2023-02-15T21:42:47.460Z,68.24
2023-02-15T21:45:36.422Z,68.66
2023-02-15T21:48:04.178Z,69.03
2023-02-15T21:50:50.582Z,68.05
2023-02-15T21:53:30.643Z,67.98
2023-02-15T21:56:02.173Z,68.34
2023-02-15T21:58:33.792Z,67.86
2023-02-15T22:01:03.107Z,68.28
2023-02-15T22:03:34.938Z,67.81
2023-02-15T22:06:03.804Z,68.20
2023-02-15T22:08:35.881Z,67.92
2023-02-15T22:11:03.499Z,67.88
2023-02-15T22:13:34.140Z,68.36
2023-02-15T22:16:03.295Z,68.41
2023-02-15T22:18:34.310Z,68.44
2023-02-15T22:21:04.428Z,67.79
2023-02-15T22:23:31.683Z,68.33
2023-02-15T22:26:06.069Z,68.29
2023-02-15T22:28:43.298Z,67.95
2023-02-15T22:31:18.860Z,68.21
2023-02-15T22:33:46.468Z,68.64
2023-02-15T22:36:32.068Z,68.62
2023-02-15T22:38:59.219Z,68.53
2023-02-15T22:41:31.417Z,68.32
2023-02-15T22:43:58.627Z,68.45
2023-02-15T22:46:26.852Z,68.60
2023-02-15T22:48:53.975Z,68.73
2023-02-15T22:51:24.343Z,68.53
2023-02-15T22:53:53.305Z,68.46
2023-02-15T22:56:32.397Z,68.90
2023-02-15T22:59:09.054Z,68.74
2023-02-15T23:01:38.609Z,68.63
2023-02-15T23:04:05.997Z,68.58
2023-02-15T23:06:34.535Z,68.98
2023-02-15T23:09:01.882Z,69.04
2023-02-15T23:11:29.522Z,69.03
2023-02-15T23:13:56.689Z,69.55
2023-02-15T23:16:23.940Z,69.35
2023-02-15T23:18:51.246Z,69.58
2023-02-15T23:21:22.770Z,69.19
2023-02-15T23:23:55.855Z,69.95
2023-02-15T23:26:31.686Z,69.54
2023-02-15T23:29:01.700Z,70.06
2023-02-15T23:31:33.393Z,70.23
2023-02-15T23:34:07.701Z,70.14
2023-02-15T23:36:39.488Z,69.96
2023-02-15T23:39:39.600Z,70.51
2023-02-15T23:42:14.542Z,70.19
2023-02-15T23:44:45.063Z,70.66
2023-02-15T23:47:53.854Z,71.52
2023-02-15T23:50:30.264Z,71.98
2023-02-15T23:52:58.631Z,72.16
2023-02-15T23:55:36.128Z,72.44
2023-02-15T23:58:07.227Z,72.62
